sensor_id;sensor_type;location;lat;lon;timestamp;pressure;altitude;pressure_sealevel;temperature;humidity
81509;BME280;70930;52.412;13.554;2024-01-07T00:01:55;101336.59;;;-2.10;73.12
81509;BME280;70930;52.412;13.554;2024-01-07T00:04:23;101342.00;;;-1.98;73.24
81509;BME280;70930;52.412;13.554;2024-01-07T00:06:49;101345.13;;;-1.91;73.46
81509;BME280;70930;52.412;13.554;2024-01-07T00:09:15;101346.53;;;-2.01;74.75
81509;BME280;70930;52.412;13.554;2024-01-07T00:11:41;101348.81;;;-1.95;74.77
81509;BME280;70930;52.412;13.554;2024-01-07T00:14:06;101351.44;;;-1.95;75.32
81509;BME280;70930;52.412;13.554;2024-01-07T00:16:32;101348.88;;;-1.97;74.49
81509;BME280;70930;52.412;13.554;2024-01-07T00:18:57;101353.66;;;-2.05;75.54
81509;BME280;70930;52.412;13.554;2024-01-07T00:21:23;101344.84;;;-2.02;74.81
81509;BME280;70930;52.412;13.554;2024-01-07T00:23:49;101357.31;;;-2.09;74.39
81509;BME280;70930;52.412;13.554;2024-01-07T00:26:14;101352.75;;;-2.04;75.91
81509;BME280;70930;52.412;13.554;2024-01-07T00:28:40;101365.44;;;-1.98;75.69
81509;BME280;70930;52.412;13.554;2024-01-07T00:31:05;101354.09;;;-1.97;75.37
81509;BME280;70930;52.412;13.554;2024-01-07T00:33:34;101356.09;;;-2.02;73.81
81509;BME280;70930;52.412;13.554;2024-01-07T00:36:00;101358.41;;;-1.95;74.62
81509;BME280;70930;52.412;13.554;2024-01-07T00:38:26;101362.53;;;-2.09;73.50
81509;BME280;70930;52.412;13.554;2024-01-07T00:40:51;101365.31;;;-2.12;74.33
81509;BME280;70930;52.412;13.554;2024-01-07T00:43:16;101365.75;;;-2.04;73.76
81509;BME280;70930;52.412;13.554;2024-01-07T00:45:42;101379.53;;;-2.02;73.65
81509;BME280;70930;52.412;13.554;2024-01-07T00:48:07;101383.78;;;-2.01;75.14
81509;BME280;70930;52.412;13.554;2024-01-07T00:50:33;101383.50;;;-1.94;73.22
81509;BME280;70930;52.412;13.554;2024-01-07T00:52:58;101389.56;;;-2.11;73.22
81509;BME280;70930;52.412;13.554;2024-01-07T00:55:23;101383.75;;;-2.16;73.69
81509;BME280;70930;52.412;13.554;2024-01-07T00:57:49;101387.50;;;-2.22;73.18
81509;BME280;70930;52.412;13.554;2024-01-07T01:00:16;101389.13;;;-2.19;74.27
81509;BME280;70930;52.412;13.554;2024-01-07T01:02:41;101395.59;;;-2.28;71.51
81509;BME280;70930;52.412;13.554;2024-01-07T01:05:07;101399.97;;;-2.29;71.28
81509;BME280;70930;52.412;13.554;2024-01-07T01:07:32;101402.88;;;-2.17;73.01
81509;BME280;70930;52.412;13.554;2024-01-07T01:09:58;101406.00;;;-2.28;72.12
81509;BME280;70930;52.412;13.554;2024-01-07T01:12:23;101407.63;;;-2.26;73.16
81509;BME280;70930;52.412;13.554;2024-01-07T01:14:49;101413.06;;;-2.30;72.72
81509;BME280;70930;52.412;13.554;2024-01-07T01:17:14;101413.44;;;-2.38;72.20
81509;BME280;70930;52.412;13.554;2024-01-07T01:19:39;101418.50;;;-2.35;73.40
81509;BME280;70930;52.412;13.554;2024-01-07T01:22:05;101425.53;;;-2.37;73.21
81509;BME280;70930;52.412;13.554;2024-01-07T01:24:30;101426.53;;;-2.39;71.97
81509;BME280;70930;52.412;13.554;2024-01-07T01:26:55;101431.28;;;-2.30;72.52
81509;BME280;70930;52.412;13.554;2024-01-07T01:29:21;101441.06;;;-2.35;72.94
81509;BME280;70930;52.412;13.554;2024-01-07T01:31:46;101440.59;;;-2.26;73.08
81509;BME280;70930;52.412;13.554;2024-01-07T01:34:11;101436.94;;;-2.39;72.85
81509;BME280;70930;52.412;13.554;2024-01-07T01:36:37;101437.22;;;-2.45;72.74
81509;BME280;70930;52.412;13.554;2024-01-07T01:39:02;101441.72;;;-2.49;72.02
81509;BME280;70930;52.412;13.554;2024-01-07T01:41:28;101442.50;;;-2.47;71.93
81509;BME280;70930;52.412;13.554;2024-01-07T01:43:58;101449.38;;;-2.46;72.53
81509;BME280;70930;52.412;13.554;2024-01-07T01:46:24;101441.13;;;-2.54;72.13
81509;BME280;70930;52.412;13.554;2024-01-07T01:48:49;101446.75;;;-2.63;70.84
81509;BME280;70930;52.412;13.554;2024-01-07T01:51:15;101455.53;;;-2.66;71.29
81509;BME280;70930;52.412;13.554;2024-01-07T01:53:41;101453.91;;;-2.68;71.35
81509;BME280;70930;52.412;13.554;2024-01-07T01:56:06;101457.44;;;-2.69;72.10
81509;BME280;70930;52.412;13.554;2024-01-07T01:58:32;101458.16;;;-2.66;71.32
81509;BME280;70930;52.412;13.554;2024-01-07T02:00:58;101468.78;;;-2.70;71.83
81509;BME280;70930;52.412;13.554;2024-01-07T02:03:24;101474.09;;;-2.74;71.10
81509;BME280;70930;52.412;13.554;2024-01-07T02:05:50;101472.34;;;-2.92;70.54
81509;BME280;70930;52.412;13.554;2024-01-07T02:08:17;101471.81;;;-2.99;71.33
81509;BME280;70930;52.412;13.554;2024-01-07T02:10:43;101475.44;;;-3.03;71.27
81509;BME280;70930;52.412;13.554;2024-01-07T02:13:10;101473.50;;;-2.98;70.44
81509;BME280;70930;52.412;13.554;2024-01-07T02:15:36;101478.13;;;-3.04;72.36
81509;BME280;70930;52.412;13.554;2024-01-07T02:18:01;101481.63;;;-3.05;71.85
81509;BME280;70930;52.412;13.554;2024-01-07T02:20:26;101470.63;;;-3.10;71.58
81509;BME280;70930;52.412;13.554;2024-01-07T02:22:52;101473.97;;;-3.08;72.15
81509;BME280;70930;52.412;13.554;2024-01-07T02:25:17;101484.00;;;-3.01;72.91
81509;BME280;70930;52.412;13.554;2024-01-07T02:27:42;101489.69;;;-3.11;71.90
81509;BME280;70930;52.412;13.554;2024-01-07T02:30:08;101481.00;;;-3.10;72.73
81509;BME280;70930;52.412;13.554;2024-01-07T02:32:33;101478.41;;;-3.10;72.29
81509;BME280;70930;52.412;13.554;2024-01-07T02:35:01;101479.72;;;-3.21;72.73
81509;BME280;70930;52.412;13.554;2024-01-07T02:37:26;101486.88;;;-3.26;72.40
81509;BME280;70930;52.412;13.554;2024-01-07T02:39:52;101493.69;;;-3.23;72.78
81509;BME280;70930;52.412;13.554;2024-01-07T02:42:17;101485.84;;;-3.22;73.08
81509;BME280;70930;52.412;13.554;2024-01-07T02:44:43;101479.72;;;-3.21;72.03
81509;BME280;70930;52.412;13.554;2024-01-07T02:47:08;101496.69;;;-3.32;73.30
81509;BME280;70930;52.412;13.554;2024-01-07T02:49:34;101492.97;;;-3.27;73.57
81509;BME280;70930;52.412;13.554;2024-01-07T02:51:59;101491.75;;;-3.38;73.10
81509;BME280;70930;52.412;13.554;2024-01-07T02:54:25;101502.47;;;-3.46;73.17
81509;BME280;70930;52.412;13.554;2024-01-07T02:56:50;101504.81;;;-3.40;73.04
81509;BME280;70930;52.412;13.554;2024-01-07T02:59:15;101515.34;;;-3.43;73.91
81509;BME280;70930;52.412;13.554;2024-01-07T03:01:41;101517.38;;;-3.50;73.37
81509;BME280;70930;52.412;13.554;2024-01-07T03:04:09;101514.81;;;-3.51;73.98
81509;BME280;70930;52.412;13.554;2024-01-07T03:06:35;101513.91;;;-3.50;73.18
81509;BME280;70930;52.412;13.554;2024-01-07T03:09:00;101516.38;;;-3.47;73.56
81509;BME280;70930;52.412;13.554;2024-01-07T03:11:26;101514.00;;;-3.52;73.78
81509;BME280;70930;52.412;13.554;2024-01-07T03:13:51;101516.06;;;-3.60;74.28
81509;BME280;70930;52.412;13.554;2024-01-07T03:16:24;101509.03;;;-3.58;73.75
81509;BME280;70930;52.412;13.554;2024-01-07T03:18:50;101520.53;;;-3.63;73.81
81509;BME280;70930;52.412;13.554;2024-01-07T03:21:19;101512.75;;;-3.63;74.29
81509;BME280;70930;52.412;13.554;2024-01-07T03:23:45;101514.63;;;-3.67;73.96
81509;BME280;70930;52.412;13.554;2024-01-07T03:26:12;101517.13;;;-3.64;74.15
81509;BME280;70930;52.412;13.554;2024-01-07T03:28:38;101516.84;;;-3.78;74.17
81509;BME280;70930;52.412;13.554;2024-01-07T03:31:14;101521.66;;;-3.69;74.73
81509;BME280;70930;52.412;13.554;2024-01-07T03:33:41;101522.53;;;-3.70;73.65
81509;BME280;70930;52.412;13.554;2024-01-07T03:36:11;101522.94;;;-3.79;73.78
81509;BME280;70930;52.412;13.554;2024-01-07T03:38:38;101529.69;;;-3.75;74.49
81509;BME280;70930;52.412;13.554;2024-01-07T03:41:04;101527.81;;;-3.72;74.18
81509;BME280;70930;52.412;13.554;2024-01-07T03:43:30;101532.59;;;-3.62;74.36
81509;BME280;70930;52.412;13.554;2024-01-07T03:45:55;101538.44;;;-3.78;73.63
81509;BME280;70930;52.412;13.554;2024-01-07T03:48:20;101536.97;;;-3.83;73.15
81509;BME280;70930;52.412;13.554;2024-01-07T03:50:46;101540.59;;;-3.87;73.78
81509;BME280;70930;52.412;13.554;2024-01-07T03:53:12;101551.69;;;-3.84;74.36
81509;BME280;70930;52.412;13.554;2024-01-07T03:55:37;101551.81;;;-3.87;73.33
81509;BME280;70930;52.412;13.554;2024-01-07T03:58:03;101547.41;;;-3.85;74.67
81509;BME280;70930;52.412;13.554;2024-01-07T04:00:29;101556.69;;;-3.79;74.51
81509;BME280;70930;52.412;13.554;2024-01-07T04:02:54;101568.53;;;-3.74;74.70
81509;BME280;70930;52.412;13.554;2024-01-07T04:05:19;101568.75;;;-3.78;73.71
81509;BME280;70930;52.412;13.554;2024-01-07T04:07:45;101564.84;;;-3.88;72.99
81509;BME280;70930;52.412;13.554;2024-01-07T04:10:10;101573.59;;;-3.91;72.40
81509;BME280;70930;52.412;13.554;2024-01-07T04:12:36;101578.00;;;-3.93;72.68
81509;BME280;70930;52.412;13.554;2024-01-07T04:15:03;101582.22;;;-3.90;73.19
81509;BME280;70930;52.412;13.554;2024-01-07T04:17:28;101586.88;;;-3.99;73.30
81509;BME280;70930;52.412;13.554;2024-01-07T04:19:54;101588.75;;;-4.02;73.66
81509;BME280;70930;52.412;13.554;2024-01-07T04:22:19;101592.06;;;-3.99;74.37
81509;BME280;70930;52.412;13.554;2024-01-07T04:24:45;101594.97;;;-4.06;73.14
81509;BME280;70930;52.412;13.554;2024-01-07T04:27:10;101589.66;;;-4.03;73.34
81509;BME280;70930;52.412;13.554;2024-01-07T04:29:36;101596.53;;;-4.02;73.12
81509;BME280;70930;52.412;13.554;2024-01-07T04:32:01;101599.84;;;-3.99;73.35
81509;BME280;70930;52.412;13.554;2024-01-07T04:34:26;101607.31;;;-3.91;72.92
81509;BME280;70930;52.412;13.554;2024-01-07T04:36:52;101605.66;;;-3.92;73.42
81509;BME280;70930;52.412;13.554;2024-01-07T04:39:17;101611.06;;;-3.98;73.34
81509;BME280;70930;52.412;13.554;2024-01-07T04:41:42;101605.88;;;-3.98;71.90
81509;BME280;70930;52.412;13.554;2024-01-07T04:44:08;101613.19;;;-4.08;72.17
81509;BME280;70930;52.412;13.554;2024-01-07T04:46:34;101605.16;;;-4.02;72.81
81509;BME280;70930;52.412;13.554;2024-01-07T04:49:00;101619.94;;;-4.04;71.96
81509;BME280;70930;52.412;13.554;2024-01-07T04:51:26;101625.06;;;-4.02;71.86
81509;BME280;70930;52.412;13.554;2024-01-07T04:53:51;101621.50;;;-4.00;71.96
81509;BME280;70930;52.412;13.554;2024-01-07T04:56:16;101616.50;;;-4.04;72.00
81509;BME280;70930;52.412;13.554;2024-01-07T04:58:42;101610.22;;;-3.99;71.94
81509;BME280;70930;52.412;13.554;2024-01-07T05:01:07;101614.66;;;-4.01;72.68
81509;BME280;70930;52.412;13.554;2024-01-07T05:03:32;101614.91;;;-3.86;72.42
81509;BME280;70930;52.412;13.554;2024-01-07T05:05:59;101609.13;;;-3.93;72.29
81509;BME280;70930;52.412;13.554;2024-01-07T05:08:24;101623.19;;;-3.99;72.37
81509;BME280;70930;52.412;13.554;2024-01-07T05:10:49;101622.34;;;-3.99;72.46
81509;BME280;70930;52.412;13.554;2024-01-07T05:13:15;101616.88;;;-3.91;72.44
81509;BME280;70930;52.412;13.554;2024-01-07T05:15:40;101621.22;;;-3.92;72.22
81509;BME280;70930;52.412;13.554;2024-01-07T05:18:09;101625.72;;;-3.97;71.79
81509;BME280;70930;52.412;13.554;2024-01-07T05:20:35;101639.69;;;-4.00;72.60
81509;BME280;70930;52.412;13.554;2024-01-07T05:23:00;101632.06;;;-4.04;72.19
81509;BME280;70930;52.412;13.554;2024-01-07T05:25:25;101638.22;;;-4.07;72.22
81509;BME280;70930;52.412;13.554;2024-01-07T05:27:51;101640.59;;;-4.01;72.69
81509;BME280;70930;52.412;13.554;2024-01-07T05:30:16;101637.25;;;-4.04;73.14
81509;BME280;70930;52.412;13.554;2024-01-07T05:32:42;101648.53;;;-4.05;72.18
81509;BME280;70930;52.412;13.554;2024-01-07T05:35:07;101641.47;;;-4.02;72.56
81509;BME280;70930;52.412;13.554;2024-01-07T05:37:32;101662.38;;;-4.05;73.21
81509;BME280;70930;52.412;13.554;2024-01-07T05:39:58;101653.97;;;-4.11;73.41
81509;BME280;70930;52.412;13.554;2024-01-07T05:42:23;101661.09;;;-4.16;73.63
81509;BME280;70930;52.412;13.554;2024-01-07T05:44:48;101668.53;;;-4.09;73.05
81509;BME280;70930;52.412;13.554;2024-01-07T05:47:14;101670.56;;;-4.15;72.29
81509;BME280;70930;52.412;13.554;2024-01-07T05:49:39;101672.66;;;-4.03;72.92
81509;BME280;70930;52.412;13.554;2024-01-07T05:52:04;101671.75;;;-4.02;73.21
81509;BME280;70930;52.412;13.554;2024-01-07T05:54:30;101670.28;;;-4.09;72.59
81509;BME280;70930;52.412;13.554;2024-01-07T05:56:55;101674.47;;;-4.05;73.53
81509;BME280;70930;52.412;13.554;2024-01-07T05:59:20;101675.66;;;-4.14;73.29
81509;BME280;70930;52.412;13.554;2024-01-07T06:01:46;101685.13;;;-4.13;73.21
81509;BME280;70930;52.412;13.554;2024-01-07T06:04:11;101682.50;;;-4.11;73.41
81509;BME280;70930;52.412;13.554;2024-01-07T06:06:36;101683.16;;;-4.06;72.72
81509;BME280;70930;52.412;13.554;2024-01-07T06:09:02;101692.75;;;-4.08;73.81
81509;BME280;70930;52.412;13.554;2024-01-07T06:11:27;101685.75;;;-4.06;73.28
81509;BME280;70930;52.412;13.554;2024-01-07T06:13:53;101692.69;;;-4.07;73.26
81509;BME280;70930;52.412;13.554;2024-01-07T06:16:18;101696.69;;;-4.22;72.92
81509;BME280;70930;52.412;13.554;2024-01-07T06:18:44;101691.34;;;-4.17;73.79
81509;BME280;70930;52.412;13.554;2024-01-07T06:21:09;101703.19;;;-4.10;73.21
81509;BME280;70930;52.412;13.554;2024-01-07T06:23:35;101714.25;;;-4.05;73.81
81509;BME280;70930;52.412;13.554;2024-01-07T06:26:03;101712.31;;;-4.00;73.75
81509;BME280;70930;52.412;13.554;2024-01-07T06:28:28;101718.91;;;-4.14;73.69
81509;BME280;70930;52.412;13.554;2024-01-07T06:30:53;101715.94;;;-4.04;73.49
81509;BME280;70930;52.412;13.554;2024-01-07T06:33:19;101712.97;;;-4.16;73.25
81509;BME280;70930;52.412;13.554;2024-01-07T06:35:45;101721.22;;;-4.07;72.32
81509;BME280;70930;52.412;13.554;2024-01-07T06:38:11;101723.53;;;-3.99;73.28
81509;BME280;70930;52.412;13.554;2024-01-07T06:40:36;101723.59;;;-4.01;72.73
81509;BME280;70930;52.412;13.554;2024-01-07T06:43:02;101721.97;;;-4.03;72.39
81509;BME280;70930;52.412;13.554;2024-01-07T06:45:27;101720.94;;;-4.23;73.81
81509;BME280;70930;52.412;13.554;2024-01-07T06:47:52;101729.47;;;-4.19;74.09
81509;BME280;70930;52.412;13.554;2024-01-07T06:50:18;101729.97;;;-4.09;73.67
81509;BME280;70930;52.412;13.554;2024-01-07T06:52:45;101735.00;;;-4.05;74.02
81509;BME280;70930;52.412;13.554;2024-01-07T06:55:11;101736.50;;;-3.99;72.64
81509;BME280;70930;52.412;13.554;2024-01-07T06:57:36;101741.19;;;-4.09;74.37
81509;BME280;70930;52.412;13.554;2024-01-07T07:00:02;101732.78;;;-4.15;74.28
81509;BME280;70930;52.412;13.554;2024-01-07T07:02:28;101738.59;;;-4.09;72.81
81509;BME280;70930;52.412;13.554;2024-01-07T07:04:53;101745.03;;;-3.96;73.96
81509;BME280;70930;52.412;13.554;2024-01-07T07:07:18;101738.94;;;-3.95;73.57
81509;BME280;70930;52.412;13.554;2024-01-07T07:09:44;101742.34;;;-3.94;73.77
81509;BME280;70930;52.412;13.554;2024-01-07T07:12:12;101742.69;;;-3.80;73.37
81509;BME280;70930;52.412;13.554;2024-01-07T07:14:37;101739.44;;;-3.85;73.54
81509;BME280;70930;52.412;13.554;2024-01-07T07:17:03;101751.44;;;-3.82;72.34
81509;BME280;70930;52.412;13.554;2024-01-07T07:19:28;101751.06;;;-3.95;73.47
81509;BME280;70930;52.412;13.554;2024-01-07T07:21:54;101751.78;;;-3.91;73.87
81509;BME280;70930;52.412;13.554;2024-01-07T07:24:19;101751.22;;;-3.76;72.75
81509;BME280;70930;52.412;13.554;2024-01-07T07:26:44;101754.19;;;-3.63;72.56
81509;BME280;70930;52.412;13.554;2024-01-07T07:29:10;101760.75;;;-3.77;72.52
81509;BME280;70930;52.412;13.554;2024-01-07T07:31:36;101760.22;;;-3.63;73.21
81509;BME280;70930;52.412;13.554;2024-01-07T07:34:04;101762.91;;;-3.88;73.12
81509;BME280;70930;52.412;13.554;2024-01-07T07:36:30;101771.53;;;-3.87;74.52
81509;BME280;70930;52.412;13.554;2024-01-07T07:38:56;101775.78;;;-3.85;73.35
81509;BME280;70930;52.412;13.554;2024-01-07T07:41:21;101775.00;;;-3.65;72.20
81509;BME280;70930;52.412;13.554;2024-01-07T07:43:46;101778.56;;;-3.67;72.43
81509;BME280;70930;52.412;13.554;2024-01-07T07:46:12;101779.00;;;-3.56;73.77
81509;BME280;70930;52.412;13.554;2024-01-07T07:48:38;101775.00;;;-3.43;71.88
81509;BME280;70930;52.412;13.554;2024-01-07T07:51:04;101786.38;;;-3.46;71.78
81509;BME280;70930;52.412;13.554;2024-01-07T07:53:29;101785.28;;;-3.40;71.85
81509;BME280;70930;52.412;13.554;2024-01-07T07:55:55;101792.63;;;-3.51;72.23
81509;BME280;70930;52.412;13.554;2024-01-07T07:58:20;101793.72;;;-3.35;72.08
81509;BME280;70930;52.412;13.554;2024-01-07T08:00:45;101790.69;;;-3.46;71.83
81509;BME280;70930;52.412;13.554;2024-01-07T08:03:11;101793.00;;;-3.38;71.33
81509;BME280;70930;52.412;13.554;2024-01-07T08:05:36;101789.22;;;-3.30;70.88
81509;BME280;70930;52.412;13.554;2024-01-07T08:08:02;101799.06;;;-3.38;72.41
81509;BME280;70930;52.412;13.554;2024-01-07T08:10:28;101799.13;;;-3.17;71.62
81509;BME280;70930;52.412;13.554;2024-01-07T08:12:54;101800.44;;;-3.07;70.54
81509;BME280;70930;52.412;13.554;2024-01-07T08:15:19;101808.94;;;-3.04;70.28
81509;BME280;70930;52.412;13.554;2024-01-07T08:17:45;101801.56;;;-3.14;71.29
81509;BME280;70930;52.412;13.554;2024-01-07T08:20:10;101802.91;;;-3.04;69.96
81509;BME280;70930;52.412;13.554;2024-01-07T08:22:36;101809.03;;;-3.05;70.88
81509;BME280;70930;52.412;13.554;2024-01-07T08:25:01;101815.47;;;-2.93;70.66
81509;BME280;70930;52.412;13.554;2024-01-07T08:27:27;101814.50;;;-2.91;70.62
81509;BME280;70930;52.412;13.554;2024-01-07T08:29:52;101815.59;;;-2.97;70.44
81509;BME280;70930;52.412;13.554;2024-01-07T08:32:18;101817.09;;;-2.91;70.78
81509;BME280;70930;52.412;13.554;2024-01-07T08:34:44;101823.94;;;-2.88;70.01
81509;BME280;70930;52.412;13.554;2024-01-07T08:37:10;101820.38;;;-2.86;69.98
81509;BME280;70930;52.412;13.554;2024-01-07T08:39:35;101829.16;;;-2.68;69.19
81509;BME280;70930;52.412;13.554;2024-01-07T08:42:01;101831.78;;;-2.90;70.12
81509;BME280;70930;52.412;13.554;2024-01-07T08:44:26;101825.59;;;-2.65;69.76
81509;BME280;70930;52.412;13.554;2024-01-07T08:46:52;101834.53;;;-2.73;70.31
81509;BME280;70930;52.412;13.554;2024-01-07T08:49:17;101835.03;;;-2.63;70.26
81509;BME280;70930;52.412;13.554;2024-01-07T08:51:42;101822.78;;;-2.61;69.27
81509;BME280;70930;52.412;13.554;2024-01-07T08:54:08;101823.25;;;-2.51;69.58
81509;BME280;70930;52.412;13.554;2024-01-07T08:56:34;101810.75;;;-2.23;67.27
81509;BME280;70930;52.412;13.554;2024-01-07T08:58:59;101815.94;;;-2.63;68.13
81509;BME280;70930;52.412;13.554;2024-01-07T09:01:25;101815.72;;;-2.57;68.92
81509;BME280;70930;52.412;13.554;2024-01-07T09:03:50;101815.50;;;-2.53;69.48
81509;BME280;70930;52.412;13.554;2024-01-07T09:06:15;101805.59;;;-2.24;68.64
81509;BME280;70930;52.412;13.554;2024-01-07T09:08:41;101818.34;;;-2.18;68.99
81509;BME280;70930;52.412;13.554;2024-01-07T09:11:07;101817.22;;;-2.12;68.94
81509;BME280;70930;52.412;13.554;2024-01-07T09:13:36;101822.44;;;-2.12;68.94
81509;BME280;70930;52.412;13.554;2024-01-07T09:16:02;101826.38;;;-2.23;70.27
81509;BME280;70930;52.412;13.554;2024-01-07T09:18:27;101829.41;;;-2.13;70.33
81509;BME280;70930;52.412;13.554;2024-01-07T09:20:52;101830.25;;;-2.12;68.62
81509;BME280;70930;52.412;13.554;2024-01-07T09:23:18;101845.22;;;-2.17;69.41
81509;BME280;70930;52.412;13.554;2024-01-07T09:25:43;101841.81;;;-1.99;68.83
81509;BME280;70930;52.412;13.554;2024-01-07T09:28:09;101836.25;;;-2.10;70.38
81509;BME280;70930;52.412;13.554;2024-01-07T09:30:34;101842.06;;;-2.05;68.65
81509;BME280;70930;52.412;13.554;2024-01-07T09:32:59;101832.50;;;-2.05;68.76
81509;BME280;70930;52.412;13.554;2024-01-07T09:35:25;101834.16;;;-2.02;69.43
81509;BME280;70930;52.412;13.554;2024-01-07T09:37:50;101837.66;;;-2.03;69.46
81509;BME280;70930;52.412;13.554;2024-01-07T09:40:19;101840.84;;;-1.78;68.34
81509;BME280;70930;52.412;13.554;2024-01-07T09:42:44;101834.25;;;-1.66;67.66
81509;BME280;70930;52.412;13.554;2024-01-07T09:45:13;101831.28;;;-1.77;67.54
81509;BME280;70930;52.412;13.554;2024-01-07T09:47:39;101828.41;;;-1.71;68.44
81509;BME280;70930;52.412;13.554;2024-01-07T09:50:06;101826.53;;;-1.67;68.84
81509;BME280;70930;52.412;13.554;2024-01-07T09:52:32;101827.63;;;-1.73;68.61
81509;BME280;70930;52.412;13.554;2024-01-07T09:55:01;101827.28;;;-1.65;68.72
81509;BME280;70930;52.412;13.554;2024-01-07T09:57:27;101836.06;;;-1.87;69.26
81509;BME280;70930;52.412;13.554;2024-01-07T09:59:53;101835.97;;;-1.65;69.56
81509;BME280;70930;52.412;13.554;2024-01-07T10:02:19;101827.22;;;-1.64;69.72
81509;BME280;70930;52.412;13.554;2024-01-07T10:04:45;101828.63;;;-1.57;69.73
81509;BME280;70930;52.412;13.554;2024-01-07T10:07:12;101834.13;;;-1.63;68.87
81509;BME280;70930;52.412;13.554;2024-01-07T10:09:40;101836.84;;;-1.66;69.50
81509;BME280;70930;52.412;13.554;2024-01-07T10:12:07;101843.19;;;-1.71;68.95
81509;BME280;70930;52.412;13.554;2024-01-07T10:14:33;101837.56;;;-1.62;70.04
81509;BME280;70930;52.412;13.554;2024-01-07T10:16:59;101836.63;;;-1.61;69.45
81509;BME280;70930;52.412;13.554;2024-01-07T10:19:24;101830.22;;;-1.73;70.33
81509;BME280;70930;52.412;13.554;2024-01-07T10:22:16;101836.31;;;-1.73;70.09
81509;BME280;70930;52.412;13.554;2024-01-07T10:24:42;101837.84;;;-1.68;69.88
81509;BME280;70930;52.412;13.554;2024-01-07T10:27:10;101834.81;;;-1.78;71.04
81509;BME280;70930;52.412;13.554;2024-01-07T10:29:36;101840.72;;;-1.75;71.21
81509;BME280;70930;52.412;13.554;2024-01-07T10:32:02;101833.69;;;-1.54;71.35
81509;BME280;70930;52.412;13.554;2024-01-07T10:34:34;101836.88;;;-1.47;71.12
81509;BME280;70930;52.412;13.554;2024-01-07T10:37:00;101835.53;;;-1.56;72.59
81509;BME280;70930;52.412;13.554;2024-01-07T10:39:27;101832.13;;;-1.58;72.62
81509;BME280;70930;52.412;13.554;2024-01-07T10:41:56;101833.63;;;-1.71;72.60
81509;BME280;70930;52.412;13.554;2024-01-07T10:44:29;101837.91;;;-1.70;72.15
81509;BME280;70930;52.412;13.554;2024-01-07T10:46:55;101844.03;;;-1.71;73.05
81509;BME280;70930;52.412;13.554;2024-01-07T10:49:25;101840.03;;;-1.59;72.18
81509;BME280;70930;52.412;13.554;2024-01-07T10:52:02;101836.00;;;-1.66;72.53
81509;BME280;70930;52.412;13.554;2024-01-07T10:54:30;101833.53;;;-1.69;73.61
81509;BME280;70930;52.412;13.554;2024-01-07T10:56:58;101819.19;;;-1.78;73.58
81509;BME280;70930;52.412;13.554;2024-01-07T10:59:24;101832.94;;;-1.56;72.67
81509;BME280;70930;52.412;13.554;2024-01-07T11:01:51;101834.16;;;-1.45;73.32
81509;BME280;70930;52.412;13.554;2024-01-07T11:04:24;101827.84;;;-1.40;73.29
81509;BME280;70930;52.412;13.554;2024-01-07T11:07:09;101820.59;;;-1.33;73.47
81509;BME280;70930;52.412;13.554;2024-01-07T11:12:12;101822.63;;;-1.40;73.79
81509;BME280;70930;52.412;13.554;2024-01-07T11:14:41;101829.53;;;-1.58;74.15
81509;BME280;70930;52.412;13.554;2024-01-07T11:17:10;101823.34;;;-1.55;73.99
81509;BME280;70930;52.412;13.554;2024-01-07T11:19:36;101824.75;;;-1.48;73.82
81509;BME280;70930;52.412;13.554;2024-01-07T11:22:20;101807.34;;;-1.29;73.48
81509;BME280;70930;52.412;13.554;2024-01-07T11:24:47;101817.44;;;-1.40;73.78
81509;BME280;70930;52.412;13.554;2024-01-07T11:27:12;101819.06;;;-1.37;73.68
81509;BME280;70930;52.412;13.554;2024-01-07T11:29:38;101811.25;;;-1.56;75.27
81509;BME280;70930;52.412;13.554;2024-01-07T11:32:05;101813.63;;;-1.52;75.32
81509;BME280;70930;52.412;13.554;2024-01-07T11:34:43;101827.38;;;-1.48;75.57
81509;BME280;70930;52.412;13.554;2024-01-07T11:37:11;101815.53;;;-1.36;74.71
81509;BME280;70930;52.412;13.554;2024-01-07T11:39:37;101815.22;;;-1.30;74.71
81509;BME280;70930;52.412;13.554;2024-01-07T11:42:03;101814.09;;;-1.25;74.83
81509;BME280;70930;52.412;13.554;2024-01-07T11:44:29;101815.31;;;-1.51;74.55
81509;BME280;70930;52.412;13.554;2024-01-07T11:46:55;101823.41;;;-1.38;74.93
81509;BME280;70930;52.412;13.554;2024-01-07T11:49:21;101817.66;;;-1.44;75.25
81509;BME280;70930;52.412;13.554;2024-01-07T11:51:46;101810.09;;;-1.51;75.73
81509;BME280;70930;52.412;13.554;2024-01-07T11:54:12;101806.22;;;-1.42;76.80
81509;BME280;70930;52.412;13.554;2024-01-07T11:56:37;101804.22;;;-1.18;74.90
81509;BME280;70930;52.412;13.554;2024-01-07T11:59:03;101800.97;;;-1.23;75.76
81509;BME280;70930;52.412;13.554;2024-01-07T12:01:28;101808.91;;;-1.07;75.33
81509;BME280;70930;52.412;13.554;2024-01-07T12:03:54;101802.09;;;-1.10;75.48
81509;BME280;70930;52.412;13.554;2024-01-07T12:06:19;101806.91;;;-1.19;74.58
81509;BME280;70930;52.412;13.554;2024-01-07T12:08:45;101806.19;;;-1.23;75.61
81509;BME280;70930;52.412;13.554;2024-01-07T12:11:12;101804.00;;;-1.13;75.42
81509;BME280;70930;52.412;13.554;2024-01-07T12:13:38;101808.50;;;-0.98;75.46
81509;BME280;70930;52.412;13.554;2024-01-07T12:16:07;101805.94;;;-1.00;75.87
81509;BME280;70930;52.412;13.554;2024-01-07T12:18:33;101805.88;;;-0.98;74.76
81509;BME280;70930;52.412;13.554;2024-01-07T12:20:59;101804.91;;;-1.14;75.75
81509;BME280;70930;52.412;13.554;2024-01-07T12:23:25;101796.66;;;-1.05;75.62
81509;BME280;70930;52.412;13.554;2024-01-07T12:25:52;101809.25;;;-0.96;75.52
81509;BME280;70930;52.412;13.554;2024-01-07T12:28:18;101812.53;;;-0.92;74.91
81509;BME280;70930;52.412;13.554;2024-01-07T12:30:44;101817.66;;;-1.08;77.02
81509;BME280;70930;52.412;13.554;2024-01-07T12:33:10;101814.00;;;-1.04;76.94
81509;BME280;70930;52.412;13.554;2024-01-07T12:35:35;101816.31;;;-0.98;76.63
81509;BME280;70930;52.412;13.554;2024-01-07T12:38:02;101820.13;;;-1.05;77.55